createdAt,value
2022-11-07T04:12:21.912Z,9.55
2022-11-07T04:15:43.848Z,9.55
2022-11-07T04:18:45.937Z,9.02
2022-11-07T04:21:48.276Z,9.04
2022-11-07T04:24:50.478Z,9.06
2022-11-07T04:27:52.769Z,9.11
2022-11-07T04:30:54.852Z,9.15
2022-11-07T04:33:57.177Z,9.15
2022-11-07T04:36:59.239Z,9.10
2022-11-07T04:40:01.665Z,9.20
2022-11-07T04:43:08.957Z,9.30
2022-11-07T04:46:11.332Z,9.32
2022-11-07T04:49:15.174Z,9.33
2022-11-07T04:52:17.649Z,9.27
2022-11-07T04:55:25.178Z,9.29
2022-11-07T04:58:27.497Z,9.37
2022-11-07T05:01:29.601Z,9.24
2022-11-07T05:04:31.973Z,9.23
2022-11-07T05:07:34.057Z,9.09
2022-11-07T05:10:36.390Z,9.03
2022-11-07T05:13:38.468Z,8.98
2022-11-07T05:16:42.920Z,8.97
2022-11-07T05:19:45.154Z,9.10
2022-11-07T05:23:05.992Z,9.20
2022-11-07T05:26:09.113Z,9.23
2022-11-07T05:29:11.709Z,9.22
2022-11-07T05:32:14.589Z,9.24
2022-11-07T05:35:17.014Z,9.16
2022-11-07T05:38:19.120Z,9.12
2022-11-07T05:41:21.984Z,9.08
2022-11-07T05:44:24.047Z,9.13
2022-11-07T05:47:26.364Z,9.26
2022-11-07T05:50:29.715Z,9.44
2022-11-07T05:53:32.940Z,9.53
2022-11-07T05:56:37.280Z,9.52
2022-11-07T05:59:39.606Z,9.53
2022-11-07T06:02:41.845Z,9.59
2022-11-07T06:05:44.445Z,9.70
2022-11-07T06:08:46.493Z,9.67
2022-11-07T06:11:48.860Z,9.65
2022-11-07T06:14:50.934Z,9.68
2022-11-07T06:17:53.325Z,9.69
2022-11-07T06:20:55.401Z,9.60
2022-11-07T06:23:59.096Z,9.65
2022-11-07T06:27:01.200Z,9.65
2022-11-07T06:30:04.291Z,9.54
2022-11-07T06:33:10.135Z,9.57
2022-11-07T06:36:13.073Z,9.64
2022-11-07T06:39:15.191Z,9.76
2022-11-07T06:42:17.557Z,9.84
2022-11-07T06:45:19.605Z,9.80
2022-11-07T06:48:21.963Z,9.81
2022-11-07T06:51:24.079Z,9.82
2022-11-07T06:54:26.426Z,10.05
2022-11-07T06:57:30.048Z,10.28
2022-11-07T07:00:34.820Z,10.22
2022-11-07T07:03:37.069Z,10.28
2022-11-07T07:06:39.875Z,10.31
2022-11-07T07:09:42.258Z,10.43
2022-11-07T07:12:44.862Z,10.40
2022-11-07T07:15:57.556Z,10.37
2022-11-07T07:18:59.945Z,10.60
2022-11-07T07:22:02.041Z,10.65
2022-11-07T07:25:04.959Z,10.78
2022-11-07T07:28:07.093Z,10.80
2022-11-07T07:31:16.218Z,10.87
2022-11-07T07:34:18.291Z,11.06
2022-11-07T07:37:20.605Z,11.25
2022-11-07T07:40:22.692Z,11.54
2022-11-07T07:43:25.532Z,11.64
2022-11-07T07:46:27.588Z,11.76
2022-11-07T07:49:29.930Z,11.79
2022-11-07T07:52:32.101Z,11.87
2022-11-07T07:55:34.708Z,11.87
2022-11-07T07:58:36.865Z,11.72
2022-11-07T08:01:39.453Z,11.67
2022-11-07T08:04:42.169Z,11.65
2022-11-07T08:07:49.056Z,11.77
2022-11-07T08:10:54.335Z,11.84
2022-11-07T08:14:01.012Z,11.97
2022-11-07T08:17:04.369Z,11.99
2022-11-07T08:20:09.595Z,12.16
2022-11-07T08:23:16.390Z,12.09
2022-11-07T08:26:18.952Z,12.01
2022-11-07T08:29:21.316Z,12.04
2022-11-07T08:32:24.216Z,11.97
2022-11-07T08:35:26.876Z,12.14
2022-11-07T08:38:30.661Z,12.26
2022-11-07T08:41:32.958Z,12.24
2022-11-07T08:44:36.628Z,12.20
2022-11-07T08:47:38.978Z,12.22
2022-11-07T08:50:41.415Z,12.24
2022-11-07T08:53:43.753Z,12.31
2022-11-07T08:56:45.864Z,12.21
2022-11-07T08:59:48.597Z,12.19
2022-11-07T09:03:30.724Z,12.18
2022-11-07T09:06:13.237Z,12.22
2022-11-07T09:09:16.833Z,12.27
2022-11-07T09:12:19.605Z,12.33
2022-11-07T09:15:22.117Z,12.42
2022-11-07T09:18:24.793Z,12.47
2022-11-07T09:21:26.868Z,12.43
2022-11-07T09:24:29.213Z,12.58
2022-11-07T09:27:31.326Z,12.43
2022-11-07T09:30:33.733Z,12.48
2022-11-07T09:33:35.822Z,12.52
2022-11-07T09:36:38.158Z,12.56
2022-11-07T09:39:40.269Z,12.45
2022-11-07T09:42:57.979Z,12.32
2022-11-07T09:46:16.952Z,12.39
2022-11-07T09:49:29.562Z,12.44
2022-11-07T09:52:36.669Z,12.64
2022-11-07T09:55:47.378Z,12.84
2022-11-07T09:58:54.684Z,12.99
2022-11-07T10:01:57.482Z,12.97
2022-11-07T10:05:02.828Z,12.86
2022-11-07T10:08:14.467Z,12.69
2022-11-07T10:11:39.013Z,12.72
2022-11-07T10:15:03.418Z,12.60
2022-11-07T10:18:31.350Z,12.82
2022-11-07T10:21:54.729Z,12.84
2022-11-07T10:25:13.163Z,12.71
2022-11-07T10:28:17.443Z,12.69
2022-11-07T10:31:20.073Z,12.73
2022-11-07T10:34:22.104Z,12.69
2022-11-07T10:37:24.847Z,12.62
2022-11-07T10:40:40.152Z,12.59
2022-11-07T10:43:46.905Z,12.50
2022-11-07T10:46:51.625Z,12.44
2022-11-07T10:49:59.521Z,12.28
2022-11-07T10:53:09.702Z,12.13
2022-11-07T10:56:14.089Z,12.05
2022-11-07T10:59:32.899Z,11.98
2022-11-07T11:02:48.918Z,11.92
2022-11-07T11:05:51.034Z,12.02
2022-11-07T11:08:53.756Z,11.93
2022-11-07T11:11:56.224Z,11.90
2022-11-07T11:15:14.683Z,11.85
2022-11-07T11:18:18.940Z,11.96
2022-11-07T11:21:22.241Z,12.30
2022-11-07T11:24:30.354Z,12.48
2022-11-07T11:27:35.383Z,12.52
2022-11-07T11:30:37.874Z,12.49
2022-11-07T11:33:47.348Z,12.39
2022-11-07T11:37:06.335Z,12.23
2022-11-07T11:40:16.559Z,12.22
2022-11-07T11:43:40.517Z,12.07
2022-11-07T11:46:52.422Z,12.52
2022-11-07T11:50:00.744Z,12.73
2022-11-07T11:53:03.068Z,12.56
2022-11-07T11:56:07.968Z,12.31
2022-11-07T11:59:34.689Z,12.13
2022-11-07T12:03:03.789Z,11.92
2022-11-07T12:06:14.632Z,11.88
2022-11-07T12:09:33.010Z,11.81
2022-11-07T12:12:54.045Z,11.64
2022-11-07T12:16:30.550Z,11.81
2022-11-07T12:19:42.162Z,11.96
2022-11-07T12:23:09.093Z,11.98
2022-11-07T12:26:31.146Z,11.88
2022-11-07T12:29:54.681Z,11.84
2022-11-07T12:33:27.419Z,12.09
2022-11-07T12:37:04.532Z,12.37
2022-11-07T12:40:23.292Z,12.72
2022-11-07T12:43:42.193Z,12.79
2022-11-07T12:46:51.346Z,12.92
2022-11-07T12:50:02.408Z,13.18
2022-11-07T12:53:25.361Z,13.63
2022-11-07T12:56:32.570Z,13.94
2022-11-07T12:59:38.898Z,14.31
2022-11-07T13:03:08.474Z,14.44
2022-11-07T13:06:18.483Z,13.80
2022-11-07T13:09:26.656Z,13.63
2022-11-07T13:12:41.265Z,13.35
2022-11-07T13:16:13.626Z,13.06
2022-11-07T13:19:31.138Z,12.91
2022-11-07T13:22:36.406Z,12.88
2022-11-07T13:25:40.402Z,12.92
2022-11-07T13:28:56.862Z,12.79
2022-11-07T13:32:14.009Z,12.44
2022-11-07T13:35:27.372Z,12.39
2022-11-07T13:38:29.678Z,12.40
2022-11-07T13:41:32.719Z,12.41
2022-11-07T13:44:38.046Z,12.42
2022-11-07T13:47:42.770Z,12.36
2022-11-07T13:50:54.158Z,12.22
2022-11-07T13:54:27.265Z,12.21
2022-11-07T13:57:49.563Z,12.18
2022-11-07T14:00:51.772Z,12.38
2022-11-07T14:03:54.413Z,12.43
2022-11-07T14:06:59.653Z,12.50
2022-11-07T14:10:05.158Z,12.53
2022-11-07T14:13:10.678Z,12.64
2022-11-07T14:16:22.195Z,12.60
2022-11-07T14:19:27.054Z,12.61
2022-11-07T14:22:29.741Z,12.51
2022-11-07T14:25:35.327Z,12.35
2022-11-07T14:28:39.533Z,12.10
2022-11-07T14:31:41.772Z,11.94
2022-11-07T14:34:47.179Z,11.82
2022-11-07T14:37:49.632Z,11.68
2022-11-07T14:40:59.247Z,11.48
2022-11-07T14:44:04.072Z,11.28
2022-11-07T14:47:08.333Z,11.17
2022-11-07T14:50:15.736Z,10.98
2022-11-07T14:53:28.637Z,10.75
2022-11-07T14:56:35.572Z,10.60
2022-11-07T14:59:38.531Z,10.50
2022-11-07T15:02:41.697Z,10.33
2022-11-07T15:05:44.964Z,10.14
2022-11-07T15:08:57.233Z,9.98
2022-11-07T15:12:01.045Z,9.88
2022-11-07T15:15:19.101Z,9.81
2022-11-07T15:18:26.540Z,9.65
2022-11-07T15:21:32.861Z,9.58
2022-11-07T15:24:43.097Z,9.53
2022-11-07T15:27:45.054Z,9.42
2022-11-07T15:30:48.865Z,9.31
2022-11-07T15:33:52.750Z,9.20
2022-11-07T15:36:55.374Z,9.11
2022-11-07T15:39:57.437Z,9.02
2022-11-07T15:42:59.754Z,8.95
2022-11-07T15:46:05.273Z,8.90
2022-11-07T15:49:09.860Z,8.93
2022-11-07T15:52:12.200Z,8.88
2022-11-07T15:55:17.706Z,8.85
2022-11-07T15:58:23.199Z,8.84
2022-11-07T16:01:25.770Z,8.76
2022-11-07T16:04:28.334Z,8.66
2022-11-07T16:07:30.420Z,8.71
2022-11-07T16:10:32.742Z,8.55
2022-11-07T16:13:34.827Z,8.48
2022-11-07T16:16:37.370Z,8.40
2022-11-07T16:19:40.113Z,8.35
2022-11-07T16:22:44.281Z,8.35
2022-11-07T16:25:49.854Z,8.39
2022-11-07T16:28:52.164Z,8.28
2022-11-07T16:31:54.224Z,8.22
2022-11-07T16:34:56.765Z,8.08
